sensor_id;sensor_type;location;lat;lon;timestamp;pressure;altitude;pressure_sealevel;temperature;humidity
52105;BME280;38103;42.776;23.112;2024-03-08T00:00:03;94118.25;;;3.51;86.40
52105;BME280;38103;42.776;23.112;2024-03-08T00:02:38;94117.78;;;3.49;86.20
52105;BME280;38103;42.776;23.112;2024-03-08T00:05:05;94113.94;;;3.55;85.12
52105;BME280;38103;42.776;23.112;2024-03-08T00:07:31;94119.78;;;3.61;83.47
52105;BME280;38103;42.776;23.112;2024-03-08T00:09:57;94120.72;;;3.56;83.81
52105;BME280;38103;42.776;23.112;2024-03-08T00:12:22;94117.78;;;3.58;83.63
52105;BME280;38103;42.776;23.112;2024-03-08T00:14:47;94111.78;;;3.58;83.74
52105;BME280;38103;42.776;23.112;2024-03-08T00:17:13;94116.69;;;3.50;84.37
52105;BME280;38103;42.776;23.112;2024-03-08T00:19:40;94105.78;;;3.48;84.67
52105;BME280;38103;42.776;23.112;2024-03-08T00:22:06;94125.19;;;3.39;84.18
52105;BME280;38103;42.776;23.112;2024-03-08T00:24:33;94119.63;;;3.31;84.90
52105;BME280;38103;42.776;23.112;2024-03-08T00:26:58;94106.38;;;3.28;85.06
52105;BME280;38103;42.776;23.112;2024-03-08T00:29:23;94116.56;;;3.29;85.51
52105;BME280;38103;42.776;23.112;2024-03-08T00:31:49;94109.59;;;3.25;84.60
52105;BME280;38103;42.776;23.112;2024-03-08T00:34:15;94112.84;;;3.22;84.86
52105;BME280;38103;42.776;23.112;2024-03-08T00:36:40;94101.91;;;3.20;84.52
52105;BME280;38103;42.776;23.112;2024-03-08T00:39:05;94108.69;;;3.21;84.28
52105;BME280;38103;42.776;23.112;2024-03-08T00:41:32;94107.44;;;3.18;85.06
52105;BME280;38103;42.776;23.112;2024-03-08T00:43:57;94104.22;;;3.30;84.14
52105;BME280;38103;42.776;23.112;2024-03-08T00:46:23;94104.06;;;3.35;83.75
52105;BME280;38103;42.776;23.112;2024-03-08T00:48:48;94107.44;;;3.27;84.70
52105;BME280;38103;42.776;23.112;2024-03-08T00:51:14;94107.31;;;3.23;84.40
52105;BME280;38103;42.776;23.112;2024-03-08T00:53:40;94103.28;;;3.17;85.12
52105;BME280;38103;42.776;23.112;2024-03-08T00:56:07;94096.97;;;3.09;84.56
52105;BME280;38103;42.776;23.112;2024-03-08T00:58:36;94101.72;;;2.99;85.18
52105;BME280;38103;42.776;23.112;2024-03-08T01:01:02;94096.78;;;2.97;84.55
52105;BME280;38103;42.776;23.112;2024-03-08T01:03:27;94092.31;;;2.89;84.84
52105;BME280;38103;42.776;23.112;2024-03-08T01:05:53;94092.16;;;2.94;85.22
52105;BME280;38103;42.776;23.112;2024-03-08T01:08:19;94093.09;;;2.98;84.85
52105;BME280;38103;42.776;23.112;2024-03-08T01:10:44;94090.00;;;2.96;85.94
52105;BME280;38103;42.776;23.112;2024-03-08T01:13:10;94084.31;;;2.94;86.48
52105;BME280;38103;42.776;23.112;2024-03-08T01:15:35;94093.09;;;2.98;86.43
52105;BME280;38103;42.776;23.112;2024-03-08T01:18:01;94088.94;;;2.97;86.88
52105;BME280;38103;42.776;23.112;2024-03-08T01:20:26;94086.63;;;2.96;86.27
52105;BME280;38103;42.776;23.112;2024-03-08T01:22:53;94086.94;;;2.94;86.99
52105;BME280;38103;42.776;23.112;2024-03-08T01:25:18;94082.63;;;2.98;85.90
52105;BME280;38103;42.776;23.112;2024-03-08T01:27:43;94071.22;;;3.03;86.30
52105;BME280;38103;42.776;23.112;2024-03-08T01:30:09;94075.84;;;3.06;86.13
52105;BME280;38103;42.776;23.112;2024-03-08T01:32:35;94073.22;;;3.06;85.68
52105;BME280;38103;42.776;23.112;2024-03-08T01:35:00;94073.66;;;2.99;85.79
52105;BME280;38103;42.776;23.112;2024-03-08T01:37:26;94068.13;;;2.92;85.86
52105;BME280;38103;42.776;23.112;2024-03-08T01:39:51;94071.50;;;2.92;86.02
52105;BME280;38103;42.776;23.112;2024-03-08T01:42:17;94071.03;;;2.99;85.47
52105;BME280;38103;42.776;23.112;2024-03-08T01:44:43;94064.59;;;3.05;84.82
52105;BME280;38103;42.776;23.112;2024-03-08T01:47:10;94069.19;;;3.08;85.00
52105;BME280;38103;42.776;23.112;2024-03-08T01:49:37;94059.47;;;3.09;85.26
52105;BME280;38103;42.776;23.112;2024-03-08T01:52:02;94062.91;;;3.09;85.33
52105;BME280;38103;42.776;23.112;2024-03-08T01:54:28;94057.66;;;3.09;85.64
52105;BME280;38103;42.776;23.112;2024-03-08T01:56:56;94060.72;;;3.11;86.19
52105;BME280;38103;42.776;23.112;2024-03-08T01:59:22;94070.75;;;3.09;86.50
52105;BME280;38103;42.776;23.112;2024-03-08T02:01:48;94062.72;;;3.06;85.63
52105;BME280;38103;42.776;23.112;2024-03-08T02:04:14;94062.72;;;3.06;86.69
52105;BME280;38103;42.776;23.112;2024-03-08T02:06:39;94053.16;;;3.01;85.76
52105;BME280;38103;42.776;23.112;2024-03-08T02:09:05;94057.94;;;2.99;85.92
52105;BME280;38103;42.776;23.112;2024-03-08T02:11:32;94057.78;;;3.04;86.23
52105;BME280;38103;42.776;23.112;2024-03-08T02:13:57;94057.78;;;3.04;85.61
52105;BME280;38103;42.776;23.112;2024-03-08T02:16:23;94059.03;;;2.98;85.09
52105;BME280;38103;42.776;23.112;2024-03-08T02:18:48;94058.88;;;2.94;85.92
52105;BME280;38103;42.776;23.112;2024-03-08T02:21:16;94055.31;;;2.99;85.58
52105;BME280;38103;42.776;23.112;2024-03-08T02:23:45;94053.63;;;3.03;85.71
52105;BME280;38103;42.776;23.112;2024-03-08T02:26:10;94054.09;;;3.05;85.88
52105;BME280;38103;42.776;23.112;2024-03-08T02:28:36;94051.00;;;3.03;85.14
52105;BME280;38103;42.776;23.112;2024-03-08T02:31:02;94056.25;;;3.03;85.71
52105;BME280;38103;42.776;23.112;2024-03-08T02:33:33;94051.00;;;3.03;85.36
52105;BME280;38103;42.776;23.112;2024-03-08T02:35:58;94055.78;;;3.01;85.12
52105;BME280;38103;42.776;23.112;2024-03-08T02:38:24;94049.78;;;3.01;84.30
52105;BME280;38103;42.776;23.112;2024-03-08T02:40:51;94062.25;;;3.04;85.06
52105;BME280;38103;42.776;23.112;2024-03-08T02:43:18;94061.97;;;3.05;84.31
52105;BME280;38103;42.776;23.112;2024-03-08T02:45:44;94058.25;;;3.06;84.36
52105;BME280;38103;42.776;23.112;2024-03-08T02:48:10;94063.81;;;3.05;85.48
52105;BME280;38103;42.776;23.112;2024-03-08T02:50:36;94057.31;;;3.02;84.90
52105;BME280;38103;42.776;23.112;2024-03-08T02:53:03;94048.56;;;2.98;85.45
52105;BME280;38103;42.776;23.112;2024-03-08T02:55:29;94053.78;;;2.98;85.48
52105;BME280;38103;42.776;23.112;2024-03-08T02:57:54;94057.00;;;2.95;85.91
52105;BME280;38103;42.776;23.112;2024-03-08T03:00:20;94057.47;;;2.97;86.24
52105;BME280;38103;42.776;23.112;2024-03-08T03:02:46;94047.00;;;2.97;85.74
52105;BME280;38103;42.776;23.112;2024-03-08T03:05:12;94047.00;;;2.97;85.76
52105;BME280;38103;42.776;23.112;2024-03-08T03:07:38;94051.16;;;2.98;86.41
52105;BME280;38103;42.776;23.112;2024-03-08T03:10:04;94044.06;;;2.99;86.45
52105;BME280;38103;42.776;23.112;2024-03-08T03:12:30;94051.00;;;3.03;86.71
52105;BME280;38103;42.776;23.112;2024-03-08T03:14:57;94042.97;;;3.00;86.51
52105;BME280;38103;42.776;23.112;2024-03-08T03:17:25;94056.72;;;3.05;86.44
52105;BME280;38103;42.776;23.112;2024-03-08T03:19:52;94054.25;;;3.00;85.99
52105;BME280;38103;42.776;23.112;2024-03-08T03:22:18;94055.63;;;3.06;85.72
52105;BME280;38103;42.776;23.112;2024-03-08T03:24:44;94063.03;;;3.04;85.54
52105;BME280;38103;42.776;23.112;2024-03-08T03:27:11;94071.66;;;2.96;85.44
52105;BME280;38103;42.776;23.112;2024-03-08T03:29:38;94069.50;;;2.89;85.59
52105;BME280;38103;42.776;23.112;2024-03-08T03:32:05;94070.28;;;2.90;85.74
52105;BME280;38103;42.776;23.112;2024-03-08T03:34:30;94071.19;;;2.94;85.64
52105;BME280;38103;42.776;23.112;2024-03-08T03:36:55;94073.81;;;2.94;85.73
52105;BME280;38103;42.776;23.112;2024-03-08T03:39:21;94085.38;;;2.93;85.47
52105;BME280;38103;42.776;23.112;2024-03-08T03:41:48;94085.06;;;2.94;85.73
52105;BME280;38103;42.776;23.112;2024-03-08T03:44:17;94085.53;;;2.88;85.26
52105;BME280;38103;42.776;23.112;2024-03-08T03:46:43;94088.13;;;2.79;86.76
52105;BME280;38103;42.776;23.112;2024-03-08T03:49:11;94096.78;;;2.80;87.19
52105;BME280;38103;42.776;23.112;2024-03-08T03:51:37;94095.38;;;2.73;86.11
52105;BME280;38103;42.776;23.112;2024-03-08T03:54:03;94096.00;;;2.70;85.64
52105;BME280;38103;42.776;23.112;2024-03-08T03:56:29;94096.78;;;2.80;85.84
52105;BME280;38103;42.776;23.112;2024-03-08T03:58:55;94106.66;;;2.91;84.74
52105;BME280;38103;42.776;23.112;2024-03-08T04:01:21;94101.72;;;2.99;85.19
52105;BME280;38103;42.776;23.112;2024-03-08T04:03:47;94099.41;;;2.97;85.56
52105;BME280;38103;42.776;23.112;2024-03-08T04:06:12;94108.69;;;3.03;85.75
52105;BME280;38103;42.776;23.112;2024-03-08T04:08:38;94105.59;;;3.01;86.27
52105;BME280;38103;42.776;23.112;2024-03-08T04:11:03;94114.38;;;3.05;85.33
52105;BME280;38103;42.776;23.112;2024-03-08T04:13:28;94118.53;;;3.06;84.85
52105;BME280;38103;42.776;23.112;2024-03-08T04:15:54;94113.91;;;3.21;83.38
52105;BME280;38103;42.776;23.112;2024-03-08T04:18:20;94112.06;;;3.12;83.66
52105;BME280;38103;42.776;23.112;2024-03-08T04:20:45;94116.53;;;3.03;84.82
52105;BME280;38103;42.776;23.112;2024-03-08T04:23:11;94124.56;;;2.98;84.91
52105;BME280;38103;42.776;23.112;2024-03-08T04:25:36;94126.38;;;2.98;85.25
52105;BME280;38103;42.776;23.112;2024-03-08T04:28:01;94132.84;;;2.83;84.27
52105;BME280;38103;42.776;23.112;2024-03-08T04:30:27;94130.16;;;2.65;86.39
52105;BME280;38103;42.776;23.112;2024-03-08T04:32:53;94132.97;;;2.69;85.70
52105;BME280;38103;42.776;23.112;2024-03-08T04:35:19;94138.00;;;2.57;86.54
52105;BME280;38103;42.776;23.112;2024-03-08T04:37:45;94145.41;;;2.55;86.75
52105;BME280;38103;42.776;23.112;2024-03-08T04:40:11;94146.47;;;2.54;86.68
52105;BME280;38103;42.776;23.112;2024-03-08T04:42:38;94142.00;;;2.54;86.78
52105;BME280;38103;42.776;23.112;2024-03-08T04:45:05;94144.75;;;2.49;87.58
52105;BME280;38103;42.776;23.112;2024-03-08T04:47:30;94138.44;;;2.50;87.51
52105;BME280;38103;42.776;23.112;2024-03-08T04:49:56;94143.69;;;2.50;87.31
52105;BME280;38103;42.776;23.112;2024-03-08T04:52:22;94144.47;;;2.50;87.83
52105;BME280;38103;42.776;23.112;2024-03-08T04:54:47;94148.94;;;2.50;87.40
52105;BME280;38103;42.776;23.112;2024-03-08T04:57:13;94155.09;;;2.54;86.15
52105;BME280;38103;42.776;23.112;2024-03-08T04:59:38;94160.13;;;2.42;84.88
52105;BME280;38103;42.776;23.112;2024-03-08T05:02:04;94153.00;;;2.34;83.83
52105;BME280;38103;42.776;23.112;2024-03-08T05:04:29;94159.66;;;2.40;83.61
52105;BME280;38103;42.776;23.112;2024-03-08T05:06:55;94165.75;;;2.26;83.16
52105;BME280;38103;42.776;23.112;2024-03-08T05:09:20;94160.03;;;2.24;82.76
52105;BME280;38103;42.776;23.112;2024-03-08T05:11:47;94169.09;;;2.18;82.49
52105;BME280;38103;42.776;23.112;2024-03-08T05:14:13;94159.59;;;2.22;81.32
52105;BME280;38103;42.776;23.112;2024-03-08T05:16:46;94164.75;;;2.36;81.50
52105;BME280;38103;42.776;23.112;2024-03-08T05:19:20;94169.53;;;2.43;80.08
52105;BME280;38103;42.776;23.112;2024-03-08T05:21:49;94174.31;;;2.41;80.77
52105;BME280;38103;42.776;23.112;2024-03-08T05:24:16;94176.44;;;2.39;79.25
52105;BME280;38103;42.776;23.112;2024-03-08T05:26:42;94181.78;;;2.34;78.84
52105;BME280;38103;42.776;23.112;2024-03-08T05:29:08;94189.03;;;2.28;79.96
52105;BME280;38103;42.776;23.112;2024-03-08T05:31:54;94195.25;;;2.41;78.84
52105;BME280;38103;42.776;23.112;2024-03-08T05:34:20;94200.03;;;2.39;80.00
52105;BME280;38103;42.776;23.112;2024-03-08T05:36:47;94202.75;;;2.34;80.10
52105;BME280;38103;42.776;23.112;2024-03-08T05:39:15;94198.41;;;2.29;80.59
52105;BME280;38103;42.776;23.112;2024-03-08T05:41:40;94207.97;;;2.34;80.31
52105;BME280;38103;42.776;23.112;2024-03-08T05:44:06;94210.16;;;2.32;80.30
52105;BME280;38103;42.776;23.112;2024-03-08T05:46:31;94207.22;;;2.33;81.56
52105;BME280;38103;42.776;23.112;2024-03-08T05:48:57;94213.53;;;2.32;81.15
52105;BME280;38103;42.776;23.112;2024-03-08T05:51:24;94221.69;;;2.30;79.38
52105;BME280;38103;42.776;23.112;2024-03-08T05:53:51;94221.81;;;2.25;80.82
52105;BME280;38103;42.776;23.112;2024-03-08T05:56:18;94230.09;;;2.19;81.11
52105;BME280;38103;42.776;23.112;2024-03-08T05:58:44;94236.03;;;2.10;80.35
52105;BME280;38103;42.776;23.112;2024-03-08T06:01:09;94236.56;;;2.21;80.21
52105;BME280;38103;42.776;23.112;2024-03-08T06:03:38;94242.34;;;2.09;79.16
52105;BME280;38103;42.776;23.112;2024-03-08T06:06:13;94244.06;;;2.14;80.55
52105;BME280;38103;42.776;23.112;2024-03-08T06:08:38;94246.06;;;2.17;79.20
52105;BME280;38103;42.776;23.112;2024-03-08T06:11:04;94243.59;;;2.12;80.82
52105;BME280;38103;42.776;23.112;2024-03-08T06:13:31;94242.81;;;2.12;80.90
52105;BME280;38103;42.776;23.112;2024-03-08T06:15:56;94243.28;;;2.14;81.15
52105;BME280;38103;42.776;23.112;2024-03-08T06:18:22;94238.81;;;2.14;81.52
52105;BME280;38103;42.776;23.112;2024-03-08T06:20:47;94245.84;;;2.27;81.41
52105;BME280;38103;42.776;23.112;2024-03-08T06:23:13;94252.19;;;2.35;80.29
52105;BME280;38103;42.776;23.112;2024-03-08T06:25:45;94253.22;;;2.48;80.85
52105;BME280;38103;42.776;23.112;2024-03-08T06:28:11;94250.81;;;2.60;79.30
52105;BME280;38103;42.776;23.112;2024-03-08T06:30:36;94254.03;;;2.57;79.86
52105;BME280;38103;42.776;23.112;2024-03-08T06:33:01;94255.09;;;2.56;81.01
52105;BME280;38103;42.776;23.112;2024-03-08T06:35:27;94254.03;;;2.57;80.02
52105;BME280;38103;42.776;23.112;2024-03-08T06:37:53;94245.31;;;2.70;78.62
52105;BME280;38103;42.776;23.112;2024-03-08T06:40:18;94247.66;;;2.81;77.54
52105;BME280;38103;42.776;23.112;2024-03-08T06:42:43;94245.75;;;2.72;79.21
52105;BME280;38103;42.776;23.112;2024-03-08T06:45:09;94249.28;;;2.59;79.18
52105;BME280;38103;42.776;23.112;2024-03-08T06:47:36;94249.09;;;2.56;78.90
52105;BME280;38103;42.776;23.112;2024-03-08T06:50:01;94254.03;;;2.57;78.70
52105;BME280;38103;42.776;23.112;2024-03-08T06:52:27;94260.22;;;2.61;77.90
52105;BME280;38103;42.776;23.112;2024-03-08T06:54:52;94250.09;;;2.77;77.45
52105;BME280;38103;42.776;23.112;2024-03-08T06:57:18;94264.03;;;2.86;76.97
52105;BME280;38103;42.776;23.112;2024-03-08T06:59:47;94257.53;;;2.84;77.77
52105;BME280;38103;42.776;23.112;2024-03-08T07:02:13;94261.47;;;2.72;76.59
52105;BME280;38103;42.776;23.112;2024-03-08T07:04:38;94268.38;;;2.91;77.75
52105;BME280;38103;42.776;23.112;2024-03-08T07:07:04;94261.91;;;2.97;78.21
52105;BME280;38103;42.776;23.112;2024-03-08T07:09:30;94264.53;;;2.97;78.91
52105;BME280;38103;42.776;23.112;2024-03-08T07:11:55;94269.19;;;3.09;76.49
52105;BME280;38103;42.776;23.112;2024-03-08T07:14:22;94267.47;;;3.04;77.94
52105;BME280;38103;42.776;23.112;2024-03-08T07:16:47;94263.13;;;2.91;78.20
52105;BME280;38103;42.776;23.112;2024-03-08T07:19:13;94267.00;;;3.02;78.41
52105;BME280;38103;42.776;23.112;2024-03-08T07:21:38;94272.91;;;3.08;78.07
52105;BME280;38103;42.776;23.112;2024-03-08T07:24:04;94274.47;;;3.18;78.28
52105;BME280;38103;42.776;23.112;2024-03-08T07:26:49;94274.19;;;3.19;77.52
52105;BME280;38103;42.776;23.112;2024-03-08T07:29:17;94276.59;;;3.07;78.82
52105;BME280;38103;42.776;23.112;2024-03-08T07:31:42;94269.38;;;3.12;78.74
52105;BME280;38103;42.776;23.112;2024-03-08T07:34:16;94279.88;;;3.12;77.68
52105;BME280;38103;42.776;23.112;2024-03-08T07:36:42;94285.19;;;3.30;78.34
52105;BME280;38103;42.776;23.112;2024-03-08T07:39:07;94269.44;;;3.30;76.35
52105;BME280;38103;42.776;23.112;2024-03-08T07:41:39;94275.16;;;3.41;76.57
52105;BME280;38103;42.776;23.112;2024-03-08T07:44:08;94280.09;;;3.42;76.21
52105;BME280;38103;42.776;23.112;2024-03-08T07:46:34;94271.78;;;3.49;75.73
52105;BME280;38103;42.776;23.112;2024-03-08T07:49:00;94277.03;;;3.49;76.83
52105;BME280;38103;42.776;23.112;2024-03-08T07:51:25;94276.72;;;3.42;76.28
52105;BME280;38103;42.776;23.112;2024-03-08T07:53:51;94280.13;;;3.51;75.14
52105;BME280;38103;42.776;23.112;2024-03-08T07:56:16;94275.03;;;3.54;74.51
52105;BME280;38103;42.776;23.112;2024-03-08T07:58:44;94275.81;;;3.46;74.89
52105;BME280;38103;42.776;23.112;2024-03-08T08:01:19;94275.97;;;3.59;74.91
52105;BME280;38103;42.776;23.112;2024-03-08T08:03:45;94272.28;;;3.68;75.25
52105;BME280;38103;42.776;23.112;2024-03-08T08:06:10;94268.91;;;3.76;74.99
52105;BME280;38103;42.776;23.112;2024-03-08T08:08:41;94267.66;;;3.91;74.59
52105;BME280;38103;42.776;23.112;2024-03-08T08:11:07;94267.38;;;4.02;72.68
52105;BME280;38103;42.776;23.112;2024-03-08T08:13:34;94272.63;;;4.10;73.07
52105;BME280;38103;42.776;23.112;2024-03-08T08:15:59;94274.94;;;3.94;71.42
52105;BME280;38103;42.776;23.112;2024-03-08T08:18:25;94272.59;;;4.19;71.37
52105;BME280;38103;42.776;23.112;2024-03-08T08:20:51;94276.94;;;4.32;70.04
52105;BME280;38103;42.776;23.112;2024-03-08T08:23:17;94281.53;;;4.44;71.16
52105;BME280;38103;42.776;23.112;2024-03-08T08:25:44;94272.44;;;4.50;69.25
52105;BME280;38103;42.776;23.112;2024-03-08T08:28:10;94272.91;;;4.44;70.72
52105;BME280;38103;42.776;23.112;2024-03-08T08:30:37;94278.16;;;4.44;71.67
52105;BME280;38103;42.776;23.112;2024-03-08T08:33:03;94277.09;;;4.36;72.64
52105;BME280;38103;42.776;23.112;2024-03-08T08:35:30;94270.25;;;4.52;70.64
52105;BME280;38103;42.776;23.112;2024-03-08T08:37:56;94275.22;;;4.45;71.52
52105;BME280;38103;42.776;23.112;2024-03-08T08:40:24;94271.53;;;4.29;72.75
52105;BME280;38103;42.776;23.112;2024-03-08T08:42:51;94275.69;;;4.38;72.41
52105;BME280;38103;42.776;23.112;2024-03-08T08:45:16;94277.56;;;4.47;71.76
52105;BME280;38103;42.776;23.112;2024-03-08T08:47:43;94267.63;;;4.61;71.86
52105;BME280;38103;42.776;23.112;2024-03-08T08:50:08;94260.50;;;4.70;71.67
52105;BME280;38103;42.776;23.112;2024-03-08T08:52:37;94259.22;;;4.76;70.95
52105;BME280;38103;42.776;23.112;2024-03-08T08:55:03;94259.38;;;4.80;71.23
52105;BME280;38103;42.776;23.112;2024-03-08T08:57:29;94259.41;;;4.71;69.53
52105;BME280;38103;42.776;23.112;2024-03-08T08:59:55;94257.88;;;4.61;71.55
52105;BME280;38103;42.776;23.112;2024-03-08T09:02:21;94260.78;;;4.77;71.73
52105;BME280;38103;42.776;23.112;2024-03-08T09:04:46;94262.75;;;4.89;69.35
52105;BME280;38103;42.776;23.112;2024-03-08T09:07:13;94257.34;;;4.86;70.12
52105;BME280;38103;42.776;23.112;2024-03-08T09:09:38;94263.38;;;4.86;68.83
52105;BME280;38103;42.776;23.112;2024-03-08T09:12:04;94261.59;;;5.08;67.57
52105;BME280;38103;42.776;23.112;2024-03-08T09:14:29;94259.16;;;4.94;70.91
52105;BME280;38103;42.776;23.112;2024-03-08T09:16:55;94256.59;;;4.76;70.83
52105;BME280;38103;42.776;23.112;2024-03-08T09:19:20;94267.56;;;4.78;71.21
52105;BME280;38103;42.776;23.112;2024-03-08T09:21:48;94266.34;;;4.76;70.54
52105;BME280;38103;42.776;23.112;2024-03-08T09:24:13;94266.72;;;5.04;70.41
52105;BME280;38103;42.776;23.112;2024-03-08T09:26:38;94270.94;;;5.26;69.04
52105;BME280;38103;42.776;23.112;2024-03-08T09:29:07;94258.28;;;5.19;68.71
52105;BME280;38103;42.776;23.112;2024-03-08T09:31:32;94261.34;;;4.92;69.07
52105;BME280;38103;42.776;23.112;2024-03-08T09:33:58;94256.81;;;5.01;69.83
52105;BME280;38103;42.776;23.112;2024-03-08T09:36:23;94258.75;;;5.21;70.53
52105;BME280;38103;42.776;23.112;2024-03-08T09:38:50;94262.28;;;5.55;68.57
52105;BME280;38103;42.776;23.112;2024-03-08T09:41:15;94255.06;;;5.73;68.30
52105;BME280;38103;42.776;23.112;2024-03-08T09:43:41;94250.38;;;5.79;66.99
52105;BME280;38103;42.776;23.112;2024-03-08T09:46:07;94258.78;;;5.93;65.50
52105;BME280;38103;42.776;23.112;2024-03-08T09:48:32;94265.91;;;5.93;65.97
52105;BME280;38103;42.776;23.112;2024-03-08T09:51:00;94261.41;;;5.93;64.46
52105;BME280;38103;42.776;23.112;2024-03-08T09:53:25;94266.09;;;5.96;65.10
52105;BME280;38103;42.776;23.112;2024-03-08T09:55:51;94261.59;;;5.97;63.68
52105;BME280;38103;42.776;23.112;2024-03-08T09:58:17;94260.56;;;6.10;63.12
52105;BME280;38103;42.776;23.112;2024-03-08T10:00:45;94258.91;;;6.05;63.28
52105;BME280;38103;42.776;23.112;2024-03-08T10:03:11;94264.09;;;6.14;63.45
52105;BME280;38103;42.776;23.112;2024-03-08T10:05:36;94259.44;;;6.11;62.92
52105;BME280;38103;42.776;23.112;2024-03-08T10:08:02;94257.16;;;6.10;62.49
52105;BME280;38103;42.776;23.112;2024-03-08T10:10:27;94266.06;;;6.17;64.31
52105;BME280;38103;42.776;23.112;2024-03-08T10:12:52;94264.78;;;6.23;63.51
52105;BME280;38103;42.776;23.112;2024-03-08T10:15:18;94259.63;;;6.27;64.39
52105;BME280;38103;42.776;23.112;2024-03-08T10:17:45;94254.44;;;6.18;63.08
52105;BME280;38103;42.776;23.112;2024-03-08T10:20:15;94264.56;;;6.16;64.42
52105;BME280;38103;42.776;23.112;2024-03-08T10:22:41;94260.97;;;6.33;61.39
52105;BME280;38103;42.776;23.112;2024-03-08T10:25:11;94261.66;;;6.30;64.46
52105;BME280;38103;42.776;23.112;2024-03-08T10:27:38;94248.47;;;6.30;63.53
52105;BME280;38103;42.776;23.112;2024-03-08T10:30:06;94261.44;;;6.35;64.74
52105;BME280;38103;42.776;23.112;2024-03-08T10:32:33;94255.03;;;6.24;63.96
52105;BME280;38103;42.776;23.112;2024-03-08T10:34:59;94258.72;;;6.23;65.20
52105;BME280;38103;42.776;23.112;2024-03-08T10:37:25;94258.03;;;6.35;65.35
52105;BME280;38103;42.776;23.112;2024-03-08T10:40:03;94266.50;;;6.40;65.10
52105;BME280;38103;42.776;23.112;2024-03-08T10:42:51;94251.22;;;6.34;64.16
52105;BME280;38103;42.776;23.112;2024-03-08T10:45:38;94250.91;;;6.35;64.71
52105;BME280;38103;42.776;23.112;2024-03-08T10:48:28;94246.09;;;6.49;63.59
52105;BME280;38103;42.776;23.112;2024-03-08T10:50:59;94238.97;;;6.50;64.72
52105;BME280;38103;42.776;23.112;2024-03-08T10:53:27;94242.19;;;6.68;63.39
52105;BME280;38103;42.776;23.112;2024-03-08T10:55:53;94242.50;;;6.54;63.93
52105;BME280;38103;42.776;23.112;2024-03-08T10:58:23;94241.00;;;6.78;63.97
52105;BME280;38103;42.776;23.112;2024-03-08T11:00:55;94238.88;;;6.59;64.38
52105;BME280;38103;42.776;23.112;2024-03-08T11:06:08;94228.84;;;6.98;63.52
52105;BME280;38103;42.776;23.112;2024-03-08T11:08:37;94226.41;;;6.92;61.56
52105;BME280;38103;42.776;23.112;2024-03-08T11:11:04;94222.66;;;6.81;64.19
52105;BME280;38103;42.776;23.112;2024-03-08T11:13:40;94218.25;;;6.73;62.26
52105;BME280;38103;42.776;23.112;2024-03-08T11:16:10;94215.88;;;6.92;61.66
52105;BME280;38103;42.776;23.112;2024-03-08T11:18:36;94209.47;;;6.93;63.34
52105;BME280;38103;42.776;23.112;2024-03-08T11:21:08;94201.91;;;6.92;64.19
52105;BME280;38103;42.776;23.112;2024-03-08T11:23:37;94205.53;;;7.00;65.53
52105;BME280;38103;42.776;23.112;2024-03-08T11:26:03;94207.97;;;7.29;65.65
52105;BME280;38103;42.776;23.112;2024-03-08T11:28:32;94192.09;;;7.42;60.26
52105;BME280;38103;42.776;23.112;2024-03-08T11:33:33;94194.75;;;7.29;60.05
52105;BME280;38103;42.776;23.112;2024-03-08T11:36:12;94211.22;;;6.77;61.62
52105;BME280;38103;42.776;23.112;2024-03-08T11:41:09;94208.50;;;6.86;63.62
52105;BME280;38103;42.776;23.112;2024-03-08T11:43:38;94199.94;;;7.13;61.72
52105;BME280;38103;42.776;23.112;2024-03-08T11:46:10;94202.88;;;7.12;60.11
52105;BME280;38103;42.776;23.112;2024-03-08T11:48:38;94197.19;;;6.85;60.98
52105;BME280;38103;42.776;23.112;2024-03-08T11:51:03;94200.44;;;6.70;60.29
52105;BME280;38103;42.776;23.112;2024-03-08T11:53:30;94198.00;;;6.53;61.85
52105;BME280;38103;42.776;23.112;2024-03-08T11:56:17;94195.06;;;6.66;62.80
52105;BME280;38103;42.776;23.112;2024-03-08T11:58:53;94188.94;;;6.75;62.62
52105;BME280;38103;42.776;23.112;2024-03-08T12:01:19;94187.72;;;6.84;61.53
52105;BME280;38103;42.776;23.112;2024-03-08T12:03:52;94181.69;;;6.84;61.67
52105;BME280;38103;42.776;23.112;2024-03-08T12:06:18;94184.44;;;6.87;63.04
52105;BME280;38103;42.776;23.112;2024-03-08T12:08:43;94185.97;;;7.13;59.77
52105;BME280;38103;42.776;23.112;2024-03-08T12:11:08;94184.88;;;7.14;59.15
52105;BME280;38103;42.776;23.112;2024-03-08T12:13:35;94177.59;;;7.23;59.01
52105;BME280;38103;42.776;23.112;2024-03-08T12:16:03;94187.63;;;7.18;59.76
52105;BME280;38103;42.776;23.112;2024-03-08T12:18:38;94180.94;;;7.08;59.85
52105;BME280;38103;42.776;23.112;2024-03-08T12:21:07;94178.16;;;7.29;58.05
52105;BME280;38103;42.776;23.112;2024-03-08T12:23:37;94177.38;;;7.41;57.22
52105;BME280;38103;42.776;23.112;2024-03-08T12:26:15;94169.00;;;7.39;58.05
52105;BME280;38103;42.776;23.112;2024-03-08T12:28:41;94173.00;;;7.20;58.82
52105;BME280;38103;42.776;23.112;2024-03-08T12:31:08;94168.81;;;7.19;60.03
52105;BME280;38103;42.776;23.112;2024-03-08T12:33:57;94171.44;;;7.31;62.29
52105;BME280;38103;42.776;23.112;2024-03-08T12:36:24;94168.13;;;7.34;59.21
52105;BME280;38103;42.776;23.112;2024-03-08T12:38:50;94167.34;;;7.46;58.24
52105;BME280;38103;42.776;23.112;2024-03-08T12:41:19;94165.69;;;7.54;56.31
52105;BME280;38103;42.776;23.112;2024-03-08T12:43:47;94155.34;;;7.49;55.79
52105;BME280;38103;42.776;23.112;2024-03-08T12:46:20;94152.25;;;7.59;57.79
52105;BME280;38103;42.776;23.112;2024-03-08T12:48:46;94156.53;;;7.64;58.15
52105;BME280;38103;42.776;23.112;2024-03-08T12:51:14;94153.34;;;7.58;58.55
52105;BME280;38103;42.776;23.112;2024-03-08T12:53:43;94146.41;;;7.66;56.68
52105;BME280;38103;42.776;23.112;2024-03-08T12:56:10;94152.25;;;7.59;58.63
52105;BME280;38103;42.776;23.112;2024-03-08T12:58:36;94148.94;;;7.62;57.59
52105;BME280;38103;42.776;23.112;2024-03-08T13:01:04;94144.47;;;7.50;58.14
52105;BME280;38103;42.776;23.112;2024-03-08T13:03:32;94148.09;;;7.46;57.11
52105;BME280;38103;42.776;23.112;2024-03-08T13:05:59;94138.00;;;7.36;56.60